MHLM/SAP METAR and TAF weather

Enter ICAO airport designator
Station Type Date Time Source
MHLM METAR 2022/11/27 08:00 UTC NOAA

MHLM 270800Z 00000KT 9999 FEW026 SCT080 23/22 Q1012 A2989 NOSIG


Station Type Date Time Source
MHLM Decoded METAR 2022/11/27 08:00 UTC NOAA

La Mesa San Pedro Sula , Honduras (MHLM) 15-27N 087-56W 31M
Nov 27, 2022 - 03:00 AM EST / 2022.11.27 0800 UTC
Wind: Calm:0
Visibility: greater than 7 mile(s):0
Sky conditions: partly cloudy
Temperature: 73 F (23 C)
Dew Point: 71 F (22 C)
Relative Humidity: 94%
Pressure (altimeter): 29.89 in. Hg (1012 hPa)
ob: MHLM 270800Z 00000KT 9999 FEW026 SCT080 23/22 Q1012 A2989 NOSIG
cycle: 8

Station Type Date Time Source
MHLM TAF 2022/11/27 06:59 UTC NOAA

TAF MHLM 270500Z 2706/2806 VRB02KT 9999 SCT028 BKN070 TX30/2721Z TN21/2712Z
BECMG 2710/2712 8000 VCSH SCT028 BKN070
BECMG 2718/2720 05010KT 4000 TSSHRA SCT030TCU FEW035CB
FM280100 VRB03KT 8000 VCSH SCT028 BKN070

Example: see airport list